createdAt,value
2023-03-07T00:00:16.544Z,93679.00
2023-03-07T00:02:43.822Z,93678.53
2023-03-07T00:05:10.898Z,93680.06
2023-03-07T00:07:38.668Z,93677.03
2023-03-07T00:10:06.283Z,93675.94
2023-03-07T00:12:33.195Z,93678.91
2023-03-07T00:15:00.221Z,93670.75
2023-03-07T00:17:27.166Z,93667.25
2023-03-07T00:19:54.148Z,93662.06
2023-03-07T00:22:21.052Z,93669.72
2023-03-07T00:24:48.849Z,93680.44
2023-03-07T00:27:15.830Z,93675.59
2023-03-07T00:29:42.833Z,93674.00
2023-03-07T00:32:09.883Z,93669.34
2023-03-07T00:34:36.857Z,93674.25
2023-03-07T00:37:03.787Z,93673.78
2023-03-07T00:39:30.800Z,93662.63
2023-03-07T00:41:57.730Z,93665.25
2023-03-07T00:44:25.485Z,93655.44
2023-03-07T00:46:52.901Z,93660.31
2023-03-07T00:49:20.921Z,93662.81
2023-03-07T00:51:48.405Z,93656.19
2023-03-07T00:54:16.161Z,93655.91
2023-03-07T00:56:43.814Z,93661.59
2023-03-07T00:59:11.305Z,93655.78
2023-03-07T01:01:38.620Z,93660.31
2023-03-07T01:04:05.834Z,93650.66
2023-03-07T01:06:34.966Z,93646.63
2023-03-07T01:09:07.864Z,93655.53
2023-03-07T01:11:37.202Z,93654.75
2023-03-07T01:14:06.738Z,93646.34
2023-03-07T01:16:38.036Z,93645.38
2023-03-07T01:19:09.461Z,93639.56
2023-03-07T01:21:40.277Z,93632.59
2023-03-07T01:24:12.361Z,93633.59
2023-03-07T01:26:39.537Z,93629.66
2023-03-07T01:29:08.019Z,93626.56
2023-03-07T01:31:36.416Z,93620.91
2023-03-07T01:34:04.790Z,93617.63
2023-03-07T01:36:35.718Z,93614.34
2023-03-07T01:39:14.051Z,93611.69
2023-03-07T01:42:03.480Z,93609.84
2023-03-07T01:44:30.652Z,93608.78
2023-03-07T01:47:00.530Z,93598.72
2023-03-07T01:49:46.142Z,93596.22
2023-03-07T01:52:22.281Z,93608.47
2023-03-07T01:55:00.064Z,93598.66
2023-03-07T01:57:33.289Z,93595.97
2023-03-07T02:00:08.534Z,93589.47
2023-03-07T02:02:42.888Z,93600.88
2023-03-07T02:05:38.058Z,93595.44
2023-03-07T02:08:08.784Z,93585.38
2023-03-07T02:10:37.794Z,93585.44
2023-03-07T02:13:05.360Z,93586.72
2023-03-07T02:15:35.050Z,93574.53
2023-03-07T02:18:03.608Z,93596.06
2023-03-07T02:21:03.128Z,93596.34
2023-03-07T02:23:41.636Z,93571.03
2023-03-07T02:26:31.082Z,93581.31
2023-03-07T02:29:00.681Z,93582.50
2023-03-07T02:31:28.594Z,93575.34
2023-03-07T02:33:55.470Z,93580.97
2023-03-07T02:36:26.733Z,93572.81
2023-03-07T02:39:09.033Z,93572.63
2023-03-07T02:41:38.491Z,93581.22
2023-03-07T02:44:13.060Z,93587.63
2023-03-07T02:46:40.523Z,93572.28
2023-03-07T02:49:07.593Z,93563.75
2023-03-07T02:51:34.593Z,93571.00
2023-03-07T02:54:01.643Z,93579.22
2023-03-07T02:56:28.963Z,93567.88
2023-03-07T02:58:56.307Z,93569.44
2023-03-07T03:01:23.781Z,93563.13
2023-03-07T03:03:50.981Z,93580.91
2023-03-07T03:06:17.879Z,93571.16
2023-03-07T03:08:44.931Z,93570.31
2023-03-07T03:11:12.124Z,93575.16
2023-03-07T03:13:40.061Z,93561.22
2023-03-07T03:16:07.857Z,93562.00
2023-03-07T03:18:35.005Z,93552.59
2023-03-07T03:21:11.436Z,93566.41
2023-03-07T03:23:39.039Z,93558.06
2023-03-07T03:26:11.207Z,93564.06
2023-03-07T03:28:40.277Z,93549.47
2023-03-07T03:31:11.881Z,93555.47
2023-03-07T03:33:40.312Z,93537.31
2023-03-07T03:36:16.847Z,93546.88
2023-03-07T03:38:46.613Z,93547.69
2023-03-07T03:41:18.262Z,93551.72
2023-03-07T03:43:48.291Z,93552.50
2023-03-07T03:46:17.525Z,93549.91
2023-03-07T03:48:44.693Z,93549.13
2023-03-07T03:51:16.908Z,93550.72
2023-03-07T03:53:43.993Z,93547.94
2023-03-07T03:56:14.975Z,93554.75
2023-03-07T03:58:42.970Z,93543.00
2023-03-07T04:01:12.166Z,93540.59
2023-03-07T04:03:42.484Z,93538.25
2023-03-07T04:06:13.731Z,93542.44
2023-03-07T04:08:41.802Z,93537.69
2023-03-07T04:11:09.193Z,93540.91
2023-03-07T04:13:36.997Z,93538.31
2023-03-07T04:16:05.171Z,93541.16
2023-03-07T04:18:32.293Z,93532.38
2023-03-07T04:20:59.359Z,93532.38
2023-03-07T04:23:28.065Z,93541.16
2023-03-07T04:25:58.087Z,93531.56
2023-03-07T04:28:41.917Z,93523.56
2023-03-07T04:31:10.986Z,93531.38
2023-03-07T04:33:38.091Z,93532.63
2023-03-07T04:36:05.696Z,93529.78
2023-03-07T04:38:32.969Z,93523.97
2023-03-07T04:41:00.133Z,93522.16
2023-03-07T04:43:27.453Z,93520.97
2023-03-07T04:45:54.437Z,93519.56
2023-03-07T04:48:21.736Z,93512.41
2023-03-07T04:50:50.483Z,93525.38
2023-03-07T04:53:19.505Z,93519.41
2023-03-07T04:55:47.316Z,93509.44
2023-03-07T04:58:15.095Z,93509.63
2023-03-07T05:00:43.974Z,93513.81
2023-03-07T05:03:13.033Z,93512.63
2023-03-07T05:05:40.560Z,93511.28
2023-03-07T05:08:08.465Z,93508.50
2023-03-07T05:10:37.043Z,93511.09
2023-03-07T05:13:04.798Z,93509.91
2023-03-07T05:15:31.935Z,93503.53
2023-03-07T05:17:58.970Z,93490.13
2023-03-07T05:20:27.634Z,93503.53
2023-03-07T05:22:54.656Z,93504.78
2023-03-07T05:25:22.237Z,93504.97
2023-03-07T05:27:49.995Z,93499.19
2023-03-07T05:30:17.184Z,93498.34
2023-03-07T05:32:44.121Z,93498.75
2023-03-07T05:35:13.441Z,93505.78
2023-03-07T05:37:41.739Z,93497.38
2023-03-07T05:40:10.522Z,93504.38
2023-03-07T05:42:41.727Z,93503.53
2023-03-07T05:45:10.477Z,93504.16
2023-03-07T05:47:38.900Z,93500.75
2023-03-07T05:50:09.569Z,93501.94
2023-03-07T05:52:37.264Z,93504.78
2023-03-07T05:55:04.673Z,93510.59
2023-03-07T05:57:32.995Z,93503.19
2023-03-07T06:00:00.016Z,93498.41
2023-03-07T06:02:27.135Z,93494.63
2023-03-07T06:04:54.210Z,93487.88
2023-03-07T06:07:21.287Z,93482.69
2023-03-07T06:09:48.220Z,93483.91
2023-03-07T06:12:15.337Z,93495.09
2023-03-07T06:14:42.201Z,93491.31
2023-03-07T06:17:09.299Z,93487.50
2023-03-07T06:19:36.420Z,93484.91
2023-03-07T06:22:04.016Z,93481.13
2023-03-07T06:24:31.158Z,93484.78
2023-03-07T06:26:58.875Z,93487.97
2023-03-07T06:29:25.949Z,93482.59
2023-03-07T06:31:52.840Z,93499.16
2023-03-07T06:34:19.806Z,93506.00
2023-03-07T06:36:48.728Z,93507.41
2023-03-07T06:39:21.108Z,93503.03
2023-03-07T06:41:51.167Z,93503.25
2023-03-07T06:44:18.415Z,93502.69
2023-03-07T06:46:46.471Z,93499.88
2023-03-07T06:49:16.464Z,93499.31
2023-03-07T06:51:46.574Z,93491.75
2023-03-07T06:54:13.870Z,93496.56
2023-03-07T06:56:41.408Z,93505.19
2023-03-07T06:59:10.395Z,93507.41
2023-03-07T07:01:37.369Z,93501.63
2023-03-07T07:04:05.272Z,93505.25
2023-03-07T07:06:32.544Z,93499.28
2023-03-07T07:09:00.135Z,93498.50
2023-03-07T07:11:31.988Z,93498.94
2023-03-07T07:14:00.325Z,93508.34
2023-03-07T07:16:27.447Z,93509.56
2023-03-07T07:18:54.511Z,93520.97
2023-03-07T07:21:22.487Z,93506.78
2023-03-07T07:23:49.462Z,93501.63
2023-03-07T07:26:16.471Z,93504.03
2023-03-07T07:28:43.518Z,93505.41
2023-03-07T07:31:10.397Z,93489.22
2023-03-07T07:33:38.056Z,93501.28
2023-03-07T07:36:07.560Z,93503.25
2023-03-07T07:38:36.649Z,93503.91
2023-03-07T07:41:04.037Z,93497.31
2023-03-07T07:43:32.216Z,93499.13
2023-03-07T07:46:09.621Z,93496.31
2023-03-07T07:48:37.348Z,93485.31
2023-03-07T07:51:05.860Z,93486.69
2023-03-07T07:53:36.481Z,93472.31
2023-03-07T07:56:03.754Z,93489.09
2023-03-07T07:58:30.843Z,93492.50
2023-03-07T08:00:58.344Z,93475.09
2023-03-07T08:03:25.791Z,93487.31
2023-03-07T08:05:53.644Z,93479.88
2023-03-07T08:08:20.597Z,93488.31
2023-03-07T08:10:48.842Z,93485.09
2023-03-07T08:13:17.746Z,93491.09
2023-03-07T08:15:44.829Z,93484.69
2023-03-07T08:18:12.033Z,93497.09
2023-03-07T08:20:39.664Z,93484.88
2023-03-07T08:23:07.327Z,93492.28
2023-03-07T08:25:34.340Z,93486.47
2023-03-07T08:28:03.583Z,93486.06
2023-03-07T08:30:33.148Z,93488.06
2023-03-07T08:33:00.533Z,93487.47
2023-03-07T08:35:31.673Z,93478.00
2023-03-07T08:38:00.557Z,93476.41
2023-03-07T08:40:31.541Z,93477.00
2023-03-07T08:43:01.492Z,93488.41
2023-03-07T08:45:28.495Z,93501.03
2023-03-07T08:47:56.472Z,93490.56
2023-03-07T08:50:27.815Z,93490.19
2023-03-07T08:52:54.878Z,93492.56
2023-03-07T08:55:21.885Z,93487.13
2023-03-07T08:57:49.042Z,93478.28
2023-03-07T09:00:17.800Z,93480.03
2023-03-07T09:02:44.719Z,93489.06
2023-03-07T09:05:11.672Z,93494.75
2023-03-07T09:07:38.705Z,93502.56
2023-03-07T09:10:06.435Z,93481.69
2023-03-07T09:12:34.377Z,93489.72
2023-03-07T09:15:01.398Z,93484.03
2023-03-07T09:17:28.644Z,93481.59
2023-03-07T09:19:56.697Z,93484.34
2023-03-07T09:22:23.731Z,93479.50
2023-03-07T09:24:50.572Z,93490.34
2023-03-07T09:27:17.626Z,93477.47
2023-03-07T09:29:45.370Z,93465.94
2023-03-07T09:32:12.427Z,93475.56
2023-03-07T09:34:40.670Z,93470.81
2023-03-07T09:37:07.725Z,93469.22
2023-03-07T09:39:34.692Z,93458.94
2023-03-07T09:42:28.204Z,93460.25
2023-03-07T09:45:10.710Z,93453.19
2023-03-07T09:48:16.940Z,93455.34
2023-03-07T09:51:03.439Z,93455.09
2023-03-07T09:53:41.709Z,93453.09
2023-03-07T09:56:35.533Z,93462.44
2023-03-07T09:59:38.538Z,93466.16
2023-03-07T10:02:17.687Z,93450.97
2023-03-07T10:04:54.960Z,93462.06
2023-03-07T10:07:25.769Z,93452.41
2023-03-07T10:10:00.497Z,93445.03
2023-03-07T10:12:48.311Z,93444.91
2023-03-07T10:15:33.239Z,93448.13
2023-03-07T10:18:27.589Z,93454.56
2023-03-07T10:21:31.176Z,93433.19
2023-03-07T10:24:22.379Z,93450.00
2023-03-07T10:27:15.541Z,93456.06
2023-03-07T10:29:49.800Z,93436.75
2023-03-07T10:33:01.518Z,93439.50
2023-03-07T10:36:12.983Z,93434.84
2023-03-07T10:39:04.651Z,93430.22
2023-03-07T10:41:31.539Z,93437.03
2023-03-07T10:43:58.625Z,93428.03
2023-03-07T10:46:30.726Z,93421.69
2023-03-07T10:49:09.451Z,93425.13
2023-03-07T10:52:02.133Z,93416.28
2023-03-07T10:54:35.474Z,93418.44
2023-03-07T10:57:19.508Z,93420.03
2023-03-07T10:59:48.704Z,93410.41
2023-03-07T11:02:32.272Z,93398.75
2023-03-07T11:04:59.775Z,93401.75
2023-03-07T11:07:35.892Z,93401.78
2023-03-07T11:10:27.666Z,93391.56
2023-03-07T11:12:56.326Z,93392.72
2023-03-07T11:15:24.699Z,93378.16
2023-03-07T11:17:52.737Z,93369.41
2023-03-07T11:20:30.941Z,93366.56
2023-03-07T11:23:24.479Z,93363.44
2023-03-07T11:25:53.736Z,93351.84
2023-03-07T11:28:35.635Z,93351.25
2023-03-07T11:31:32.064Z,93361.06
2023-03-07T11:34:27.928Z,93350.91
2023-03-07T11:37:33.896Z,93350.34
2023-03-07T11:40:09.448Z,93338.56
2023-03-07T11:42:58.955Z,93327.03
2023-03-07T11:45:43.235Z,93315.75
2023-03-07T11:48:22.048Z,93324.56
2023-03-07T11:50:57.528Z,93315.38
2023-03-07T11:53:51.771Z,93312.56
2023-03-07T11:56:26.319Z,93318.84
2023-03-07T11:59:53.948Z,93321.72
2023-03-07T12:02:38.644Z,93306.44
2023-03-07T12:05:37.451Z,93300.56
2023-03-07T12:08:32.071Z,93296.81
2023-03-07T12:11:19.705Z,93291.19
2023-03-07T12:14:25.058Z,93279.56
2023-03-07T12:17:08.952Z,93287.44
2023-03-07T12:19:57.313Z,93293.66
2023-03-07T12:22:52.816Z,93273.25
2023-03-07T12:25:39.625Z,93261.31
2023-03-07T12:28:44.579Z,93276.38
2023-03-07T12:31:16.334Z,93264.47
2023-03-07T12:34:09.685Z,93253.09
2023-03-07T12:36:52.607Z,93254.75
2023-03-07T12:39:33.146Z,93250.59
2023-03-07T12:42:06.522Z,93251.38
2023-03-07T12:44:43.335Z,93235.25
2023-03-07T12:47:25.285Z,93234.22
2023-03-07T12:50:35.331Z,93236.09
2023-03-07T12:53:30.812Z,93228.25
2023-03-07T12:56:22.397Z,93210.97
2023-03-07T12:59:07.426Z,93216.81
2023-03-07T13:02:01.901Z,93203.59
2023-03-07T13:04:40.684Z,93206.25
2023-03-07T13:07:33.426Z,93203.97
2023-03-07T13:10:05.043Z,93190.44
2023-03-07T13:12:35.310Z,93201.41
2023-03-07T13:15:25.497Z,93179.66
2023-03-07T13:17:52.390Z,93174.47
2023-03-07T13:20:28.293Z,93164.34
2023-03-07T13:22:57.906Z,93172.06
2023-03-07T13:25:48.949Z,93168.28
2023-03-07T13:28:48.758Z,93162.31
2023-03-07T13:31:15.598Z,93150.00
2023-03-07T13:33:43.659Z,93162.88
2023-03-07T13:36:38.723Z,93153.50
2023-03-07T13:39:37.958Z,93134.97
2023-03-07T13:42:05.112Z,93132.53
2023-03-07T13:44:40.963Z,93133.84
2023-03-07T13:47:56.221Z,93134.94
2023-03-07T13:50:52.283Z,93138.31
2023-03-07T13:53:34.107Z,93129.19
2023-03-07T13:56:28.510Z,93121.38
2023-03-07T13:59:16.576Z,93123.03
2023-03-07T14:01:47.472Z,93113.22
2023-03-07T14:04:39.453Z,93108.72
2023-03-07T14:07:22.968Z,93114.22
2023-03-07T14:09:54.975Z,93117.41
2023-03-07T14:13:01.114Z,93118.16
2023-03-07T14:16:08.411Z,93119.31
2023-03-07T14:19:04.293Z,93115.88
2023-03-07T14:21:55.933Z,93104.09
2023-03-07T14:24:51.881Z,93107.84
2023-03-07T14:27:18.915Z,93101.19
2023-03-07T14:29:57.023Z,93104.59
2023-03-07T14:32:31.506Z,93101.69
2023-03-07T14:34:59.645Z,93097.78
2023-03-07T14:37:31.130Z,93096.72
2023-03-07T14:40:09.870Z,93083.97
2023-03-07T14:43:04.806Z,93093.94
2023-03-07T14:45:52.966Z,93098.69
2023-03-07T14:48:54.658Z,93091.03
2023-03-07T14:51:26.451Z,93082.53
2023-03-07T14:53:53.553Z,93074.50
2023-03-07T14:56:32.165Z,93075.88
2023-03-07T14:59:02.669Z,93088.38
2023-03-07T15:01:38.819Z,93079.09
2023-03-07T15:04:27.853Z,93073.38
2023-03-07T15:06:59.090Z,93065.75
2023-03-07T15:09:27.392Z,93072.44
2023-03-07T15:12:20.634Z,93065.69
2023-03-07T15:14:55.083Z,93071.75
2023-03-07T15:17:43.604Z,93065.94
2023-03-07T15:20:22.061Z,93053.63
2023-03-07T15:22:49.371Z,93050.22
2023-03-07T15:25:25.362Z,93056.81
2023-03-07T15:28:17.617Z,93060.53
2023-03-07T15:30:52.145Z,93055.53
2023-03-07T15:33:20.065Z,93064.97
2023-03-07T15:36:11.574Z,93065.25
2023-03-07T15:38:48.065Z,93067.16
2023-03-07T15:41:36.365Z,93060.06
2023-03-07T15:44:12.556Z,93073.66
2023-03-07T15:46:46.977Z,93070.00
2023-03-07T15:49:26.198Z,93073.91
2023-03-07T15:51:59.561Z,93061.66
2023-03-07T15:54:32.052Z,93063.06
2023-03-07T15:57:04.791Z,93074.38
2023-03-07T15:59:57.737Z,93066.28
2023-03-07T16:02:44.575Z,93068.16
2023-03-07T16:05:23.528Z,93075.22
2023-03-07T16:07:53.414Z,93070.94
2023-03-07T16:10:21.623Z,93077.47
2023-03-07T16:12:49.865Z,93071.25
2023-03-07T16:15:21.242Z,93081.91
2023-03-07T16:17:56.273Z,93070.72
2023-03-07T16:20:28.361Z,93080.59
2023-03-07T16:22:56.193Z,93080.22
2023-03-07T16:25:26.831Z,93084.31
2023-03-07T16:27:57.569Z,93089.13
2023-03-07T16:30:30.676Z,93086.91
2023-03-07T16:32:57.798Z,93087.31
2023-03-07T16:35:27.822Z,93088.50
2023-03-07T16:37:55.986Z,93094.44
2023-03-07T16:40:23.732Z,93098.44
2023-03-07T16:42:51.103Z,93093.25
2023-03-07T16:45:31.376Z,93097.50
2023-03-07T16:48:05.001Z,93108.81
2023-03-07T16:50:33.438Z,93112.50
2023-03-07T16:53:00.703Z,93113.25
2023-03-07T16:55:28.103Z,93122.47
2023-03-07T16:58:00.916Z,93120.53
2023-03-07T17:00:28.925Z,93119.72
2023-03-07T17:03:00.276Z,93126.69
2023-03-07T17:05:29.900Z,93128.81
2023-03-07T17:07:58.596Z,93125.66
2023-03-07T17:10:27.000Z,93122.50
2023-03-07T17:12:59.017Z,93132.91
2023-03-07T17:15:30.491Z,93126.53
2023-03-07T17:17:59.400Z,93129.88
2023-03-07T17:20:27.117Z,93132.72
2023-03-07T17:22:54.266Z,93143.97
2023-03-07T17:25:22.822Z,93143.94
2023-03-07T17:27:55.800Z,93141.88
2023-03-07T17:30:27.410Z,93142.34
2023-03-07T17:32:54.618Z,93130.06
2023-03-07T17:35:22.064Z,93127.53
2023-03-07T17:37:52.857Z,93134.78
2023-03-07T17:40:21.142Z,93136.34
2023-03-07T17:42:51.307Z,93132.63
2023-03-07T17:45:18.911Z,93142.78
2023-03-07T17:47:50.238Z,93140.72
2023-03-07T17:50:19.382Z,93140.88
2023-03-07T17:52:46.402Z,93149.81
2023-03-07T17:55:15.513Z,93155.31
2023-03-07T17:57:43.392Z,93157.22
2023-03-07T18:00:13.721Z,93157.53
2023-03-07T18:02:44.093Z,93161.78
2023-03-07T18:05:13.110Z,93153.44
2023-03-07T18:07:41.415Z,93158.53
2023-03-07T18:10:10.246Z,93172.00
2023-03-07T18:12:39.031Z,93170.25
2023-03-07T18:15:11.193Z,93175.31
2023-03-07T18:17:47.341Z,93172.97
2023-03-07T18:20:19.032Z,93173.25
2023-03-07T18:22:46.591Z,93175.09
2023-03-07T18:25:15.845Z,93173.72
2023-03-07T18:27:43.727Z,93173.78
2023-03-07T18:30:11.948Z,93176.22
2023-03-07T18:32:39.028Z,93175.88
2023-03-07T18:35:06.875Z,93180.13
2023-03-07T18:37:34.012Z,93182.34
2023-03-07T18:40:01.045Z,93181.59
2023-03-07T18:42:28.021Z,93190.84
2023-03-07T18:44:55.009Z,93198.69
2023-03-07T18:47:21.975Z,93206.75
2023-03-07T18:49:51.212Z,93206.59
2023-03-07T18:52:18.815Z,93211.03
2023-03-07T18:54:45.727Z,93205.47
2023-03-07T18:57:12.729Z,93214.91
2023-03-07T18:59:39.854Z,93218.34
2023-03-07T19:02:08.971Z,93219.16
2023-03-07T19:04:35.903Z,93217.00
2023-03-07T19:07:03.974Z,93207.44
2023-03-07T19:09:31.625Z,93208.41
2023-03-07T19:11:59.050Z,93200.84
2023-03-07T19:14:26.457Z,93216.06
2023-03-07T19:16:53.566Z,93208.47
2023-03-07T19:19:20.823Z,93209.06
2023-03-07T19:21:47.863Z,93213.31
2023-03-07T19:24:14.918Z,93215.31
2023-03-07T19:26:43.236Z,93217.91
2023-03-07T19:29:12.145Z,93214.34
2023-03-07T19:31:40.879Z,93225.72
2023-03-07T19:34:08.981Z,93221.72
2023-03-07T19:36:37.308Z,93218.94
2023-03-07T19:39:05.098Z,93228.75
2023-03-07T19:41:32.758Z,93214.75
2023-03-07T19:44:01.307Z,93224.34
2023-03-07T19:46:28.510Z,93224.94
2023-03-07T19:48:56.692Z,93217.56
2023-03-07T19:51:26.373Z,93220.94
2023-03-07T19:53:57.155Z,93218.56
2023-03-07T19:56:30.699Z,93221.34
2023-03-07T19:59:00.930Z,93221.34
2023-03-07T20:01:29.300Z,93221.56
2023-03-07T20:03:56.991Z,93221.56
2023-03-07T20:06:29.956Z,93231.53
2023-03-07T20:08:58.624Z,93229.53
2023-03-07T20:11:32.225Z,93225.91
2023-03-07T20:14:03.580Z,93228.72
2023-03-07T20:16:32.217Z,93219.91
2023-03-07T20:19:02.948Z,93227.09
2023-03-07T20:21:30.548Z,93224.88
2023-03-07T20:24:00.750Z,93227.06
2023-03-07T20:26:36.613Z,93232.44
2023-03-07T20:29:06.142Z,93234.06
2023-03-07T20:31:33.786Z,93232.44
2023-03-07T20:34:01.289Z,93236.66
2023-03-07T20:36:31.426Z,93237.22
2023-03-07T20:39:01.720Z,93243.41
2023-03-07T20:41:31.850Z,93244.84
2023-03-07T20:44:03.941Z,93239.41
2023-03-07T20:46:32.194Z,93255.19
2023-03-07T20:49:00.934Z,93249.78
2023-03-07T20:51:31.836Z,93253.38
2023-03-07T20:54:16.021Z,93254.56
2023-03-07T20:56:45.292Z,93256.19
2023-03-07T20:59:18.244Z,93253.59
2023-03-07T21:01:45.772Z,93266.16
2023-03-07T21:04:15.801Z,93258.38
2023-03-07T21:06:45.552Z,93264.97
2023-03-07T21:09:16.056Z,93273.00
2023-03-07T21:11:46.318Z,93266.19
2023-03-07T21:14:15.697Z,93267.56
2023-03-07T21:16:43.745Z,93268.97
2023-03-07T21:19:11.626Z,93275.75
2023-03-07T21:21:39.424Z,93268.19
2023-03-07T21:24:07.329Z,93273.56
2023-03-07T21:26:36.468Z,93271.81
2023-03-07T21:29:04.789Z,93274.81
2023-03-07T21:31:34.868Z,93276.63
2023-03-07T21:34:06.326Z,93278.22
2023-03-07T21:36:33.982Z,93280.41
2023-03-07T21:39:04.146Z,93282.44
2023-03-07T21:41:31.337Z,93297.81
2023-03-07T21:43:58.465Z,93293.84
2023-03-07T21:46:26.439Z,93299.81
2023-03-07T21:48:53.952Z,93300.81
2023-03-07T21:51:21.434Z,93287.47
2023-03-07T21:53:48.638Z,93302.06
2023-03-07T21:56:17.285Z,93304.25
2023-03-07T21:58:48.879Z,93305.22
2023-03-07T22:01:23.065Z,93303.81
2023-03-07T22:03:55.554Z,93303.41
2023-03-07T22:06:23.864Z,93313.81
2023-03-07T22:08:50.894Z,93314.00
2023-03-07T22:11:17.913Z,93311.63
2023-03-07T22:13:44.848Z,93305.00
2023-03-07T22:16:16.270Z,93300.00
2023-03-07T22:18:43.458Z,93302.78
2023-03-07T22:21:18.181Z,93281.41
2023-03-07T22:23:45.820Z,93298.78
2023-03-07T22:26:13.037Z,93286.00
2023-03-07T22:28:41.229Z,93303.16
2023-03-07T22:31:11.599Z,93283.22
2023-03-07T22:33:39.411Z,93285.81
2023-03-07T22:36:08.789Z,93285.81
2023-03-07T22:38:35.825Z,93285.59
2023-03-07T22:41:23.202Z,93291.22
2023-03-07T22:43:50.247Z,93301.81
2023-03-07T22:46:17.221Z,93296.22
2023-03-07T22:48:44.144Z,93297.59
2023-03-07T22:51:18.004Z,93294.63
2023-03-07T22:53:45.817Z,93282.22
2023-03-07T22:56:27.440Z,93292.00
2023-03-07T22:58:54.598Z,93303.00
2023-03-07T23:01:25.440Z,93299.78
2023-03-07T23:03:54.478Z,93300.41
2023-03-07T23:06:23.031Z,93291.63
2023-03-07T23:08:53.094Z,93304.22
2023-03-07T23:11:22.413Z,93308.41
2023-03-07T23:13:49.837Z,93308.81
2023-03-07T23:16:20.489Z,93313.22
2023-03-07T23:18:50.662Z,93315.81
2023-03-07T23:21:20.924Z,93316.44
2023-03-07T23:23:51.697Z,93313.84
2023-03-07T23:26:26.557Z,93318.84
2023-03-07T23:28:54.354Z,93324.63
2023-03-07T23:31:32.070Z,93320.44
2023-03-07T23:34:02.362Z,93319.25
2023-03-07T23:36:31.333Z,93331.41
2023-03-07T23:39:00.002Z,93327.03
2023-03-07T23:41:27.790Z,93326.63
2023-03-07T23:43:59.888Z,93333.84
2023-03-07T23:46:27.974Z,93329.06
2023-03-07T23:48:55.152Z,93334.84
2023-03-07T23:51:22.821Z,93335.03
2023-03-07T23:53:50.208Z,93342.84
2023-03-07T23:56:17.314Z,93339.84
2023-03-07T23:58:47.305Z,93333.06
